sensor_id;sensor_type;location;lat;lon;timestamp;P1;durP1;ratioP1;P2;durP2;ratioP2
66946;SDS011;53853;51.982;5.928;2022-08-30T00:00:36;4.35;;;2.30;;
66946;SDS011;53853;51.982;5.928;2022-08-30T00:03:18;4.38;;;2.60;;
66946;SDS011;53853;51.982;5.928;2022-08-30T00:05:51;4.28;;;2.58;;
66946;SDS011;53853;51.982;5.928;2022-08-30T00:08:22;3.65;;;3.08;;
66946;SDS011;53853;51.982;5.928;2022-08-30T00:10:52;6.00;;;2.88;;
66946;SDS011;53853;51.982;5.928;2022-08-30T00:13:22;5.68;;;3.00;;
66946;SDS011;53853;51.982;5.928;2022-08-30T00:15:52;6.72;;;3.83;;
66946;SDS011;53853;51.982;5.928;2022-08-30T00:18:22;4.53;;;2.90;;
66946;SDS011;53853;51.982;5.928;2022-08-30T00:20:55;5.40;;;3.08;;
66946;SDS011;53853;51.982;5.928;2022-08-30T00:23:25;3.47;;;2.45;;
66946;SDS011;53853;51.982;5.928;2022-08-30T00:25:55;7.35;;;3.08;;
66946;SDS011;53853;51.982;5.928;2022-08-30T00:28:24;5.38;;;3.72;;
66946;SDS011;53853;51.982;5.928;2022-08-30T00:30:55;6.63;;;3.05;;
66946;SDS011;53853;51.982;5.928;2022-08-30T00:33:26;4.75;;;3.83;;
66946;SDS011;53853;51.982;5.928;2022-08-30T00:35:59;5.20;;;2.97;;
66946;SDS011;53853;51.982;5.928;2022-08-30T00:38:29;12.27;;;8.07;;
66946;SDS011;53853;51.982;5.928;2022-08-30T00:40:59;5.78;;;4.03;;
66946;SDS011;53853;51.982;5.928;2022-08-30T00:43:30;5.00;;;3.63;;
66946;SDS011;53853;51.982;5.928;2022-08-30T00:46:01;8.02;;;3.08;;
66946;SDS011;53853;51.982;5.928;2022-08-30T00:48:33;6.72;;;4.22;;
66946;SDS011;53853;51.982;5.928;2022-08-30T00:51:09;6.23;;;3.53;;
66946;SDS011;53853;51.982;5.928;2022-08-30T00:53:41;6.70;;;3.72;;
66946;SDS011;53853;51.982;5.928;2022-08-30T00:56:15;4.28;;;2.95;;
66946;SDS011;53853;51.982;5.928;2022-08-30T00:58:48;5.75;;;3.42;;
66946;SDS011;53853;51.982;5.928;2022-08-30T01:01:21;5.57;;;3.35;;
66946;SDS011;53853;51.982;5.928;2022-08-30T01:03:52;7.30;;;4.32;;
66946;SDS011;53853;51.982;5.928;2022-08-30T01:06:25;5.22;;;4.20;;
66946;SDS011;53853;51.982;5.928;2022-08-30T01:08:54;7.13;;;3.45;;
66946;SDS011;53853;51.982;5.928;2022-08-30T01:11:28;4.22;;;3.53;;
66946;SDS011;53853;51.982;5.928;2022-08-30T01:13:59;5.80;;;2.92;;
66946;SDS011;53853;51.982;5.928;2022-08-30T01:16:30;5.35;;;3.45;;
66946;SDS011;53853;51.982;5.928;2022-08-30T01:19:01;4.20;;;2.25;;
66946;SDS011;53853;51.982;5.928;2022-08-30T01:21:35;5.90;;;3.47;;
66946;SDS011;53853;51.982;5.928;2022-08-30T01:24:13;5.32;;;3.58;;
66946;SDS011;53853;51.982;5.928;2022-08-30T01:26:44;6.07;;;3.03;;
66946;SDS011;53853;51.982;5.928;2022-08-30T01:29:17;5.20;;;3.75;;
66946;SDS011;53853;51.982;5.928;2022-08-30T01:31:50;5.25;;;3.65;;
66946;SDS011;53853;51.982;5.928;2022-08-30T01:34:20;5.18;;;4.35;;
66946;SDS011;53853;51.982;5.928;2022-08-30T01:36:50;5.38;;;3.50;;
66946;SDS011;53853;51.982;5.928;2022-08-30T01:39:22;6.78;;;3.20;;
66946;SDS011;53853;51.982;5.928;2022-08-30T01:41:52;4.47;;;3.47;;
66946;SDS011;53853;51.982;5.928;2022-08-30T01:44:22;6.20;;;4.55;;
66946;SDS011;53853;51.982;5.928;2022-08-30T01:46:52;5.63;;;4.20;;
66946;SDS011;53853;51.982;5.928;2022-08-30T01:49:22;5.75;;;4.45;;
66946;SDS011;53853;51.982;5.928;2022-08-30T01:51:52;6.00;;;4.78;;
66946;SDS011;53853;51.982;5.928;2022-08-30T01:54:24;3.72;;;3.28;;
66946;SDS011;53853;51.982;5.928;2022-08-30T01:56:54;5.03;;;3.30;;
66946;SDS011;53853;51.982;5.928;2022-08-30T01:59:24;4.15;;;3.45;;
66946;SDS011;53853;51.982;5.928;2022-08-30T02:01:54;7.18;;;4.32;;
66946;SDS011;53853;51.982;5.928;2022-08-30T02:04:25;5.63;;;3.58;;
66946;SDS011;53853;51.982;5.928;2022-08-30T02:06:55;4.40;;;3.60;;
66946;SDS011;53853;51.982;5.928;2022-08-30T02:09:27;5.18;;;3.65;;
66946;SDS011;53853;51.982;5.928;2022-08-30T02:11:57;7.00;;;3.58;;
66946;SDS011;53853;51.982;5.928;2022-08-30T02:14:27;4.57;;;3.70;;
66946;SDS011;53853;51.982;5.928;2022-08-30T02:16:57;4.97;;;3.53;;
66946;SDS011;53853;51.982;5.928;2022-08-30T02:19:27;3.63;;;2.38;;
66946;SDS011;53853;51.982;5.928;2022-08-30T02:21:57;4.30;;;2.80;;
66946;SDS011;53853;51.982;5.928;2022-08-30T02:24:30;4.93;;;3.72;;
66946;SDS011;53853;51.982;5.928;2022-08-30T02:27:00;4.28;;;3.42;;
66946;SDS011;53853;51.982;5.928;2022-08-30T02:29:30;4.45;;;3.22;;
66946;SDS011;53853;51.982;5.928;2022-08-30T02:32:00;4.07;;;3.63;;
66946;SDS011;53853;51.982;5.928;2022-08-30T02:34:30;3.92;;;2.92;;
66946;SDS011;53853;51.982;5.928;2022-08-30T02:37:00;3.15;;;2.60;;
66946;SDS011;53853;51.982;5.928;2022-08-30T02:39:33;5.05;;;2.95;;
66946;SDS011;53853;51.982;5.928;2022-08-30T02:42:04;4.57;;;3.22;;
66946;SDS011;53853;51.982;5.928;2022-08-30T02:44:34;3.55;;;2.83;;
66946;SDS011;53853;51.982;5.928;2022-08-30T02:47:04;6.25;;;4.40;;
66946;SDS011;53853;51.982;5.928;2022-08-30T02:49:33;4.35;;;3.50;;
66946;SDS011;53853;51.982;5.928;2022-08-30T02:52:04;3.38;;;2.63;;
66946;SDS011;53853;51.982;5.928;2022-08-30T02:54:37;5.60;;;2.83;;
66946;SDS011;53853;51.982;5.928;2022-08-30T02:57:06;5.30;;;4.10;;
66946;SDS011;53853;51.982;5.928;2022-08-30T02:59:38;5.13;;;4.25;;
66946;SDS011;53853;51.982;5.928;2022-08-30T03:02:10;4.63;;;3.70;;
66946;SDS011;53853;51.982;5.928;2022-08-30T03:04:40;6.05;;;5.45;;
66946;SDS011;53853;51.982;5.928;2022-08-30T03:07:11;7.72;;;6.30;;
66946;SDS011;53853;51.982;5.928;2022-08-30T03:09:44;7.55;;;6.55;;
66946;SDS011;53853;51.982;5.928;2022-08-30T03:12:13;4.85;;;3.65;;
66946;SDS011;53853;51.982;5.928;2022-08-30T03:14:43;5.68;;;3.47;;
66946;SDS011;53853;51.982;5.928;2022-08-30T03:17:13;5.57;;;4.70;;
66946;SDS011;53853;51.982;5.928;2022-08-30T03:19:44;8.00;;;6.20;;
66946;SDS011;53853;51.982;5.928;2022-08-30T03:22:13;4.65;;;3.95;;
66946;SDS011;53853;51.982;5.928;2022-08-30T03:24:46;5.97;;;5.15;;
66946;SDS011;53853;51.982;5.928;2022-08-30T03:27:16;6.47;;;4.70;;
66946;SDS011;53853;51.982;5.928;2022-08-30T03:29:46;7.15;;;6.05;;
66946;SDS011;53853;51.982;5.928;2022-08-30T03:32:16;8.38;;;6.40;;
66946;SDS011;53853;51.982;5.928;2022-08-30T03:34:46;5.55;;;5.05;;
66946;SDS011;53853;51.982;5.928;2022-08-30T03:37:16;7.80;;;6.45;;
66946;SDS011;53853;51.982;5.928;2022-08-30T03:39:49;6.80;;;5.78;;
66946;SDS011;53853;51.982;5.928;2022-08-30T03:42:19;10.77;;;7.88;;
66946;SDS011;53853;51.982;5.928;2022-08-30T03:44:49;5.13;;;4.63;;
66946;SDS011;53853;51.982;5.928;2022-08-30T03:47:18;5.45;;;4.82;;
66946;SDS011;53853;51.982;5.928;2022-08-30T03:49:48;6.80;;;6.10;;
66946;SDS011;53853;51.982;5.928;2022-08-30T03:52:18;6.03;;;5.38;;
66946;SDS011;53853;51.982;5.928;2022-08-30T03:54:50;5.60;;;4.80;;
66946;SDS011;53853;51.982;5.928;2022-08-30T03:57:20;4.88;;;4.38;;
66946;SDS011;53853;51.982;5.928;2022-08-30T03:59:50;4.80;;;4.30;;
66946;SDS011;53853;51.982;5.928;2022-08-30T04:02:21;5.28;;;4.35;;
66946;SDS011;53853;51.982;5.928;2022-08-30T04:04:51;6.22;;;5.60;;
66946;SDS011;53853;51.982;5.928;2022-08-30T04:07:21;5.68;;;5.07;;
66946;SDS011;53853;51.982;5.928;2022-08-30T04:09:53;5.05;;;4.03;;
66946;SDS011;53853;51.982;5.928;2022-08-30T04:12:23;5.47;;;4.97;;
66946;SDS011;53853;51.982;5.928;2022-08-30T04:14:53;4.97;;;3.95;;
66946;SDS011;53853;51.982;5.928;2022-08-30T04:17:23;6.20;;;4.20;;
66946;SDS011;53853;51.982;5.928;2022-08-30T04:19:53;5.65;;;3.97;;
66946;SDS011;53853;51.982;5.928;2022-08-30T04:22:23;4.93;;;4.05;;
66946;SDS011;53853;51.982;5.928;2022-08-30T04:24:55;4.85;;;4.10;;
66946;SDS011;53853;51.982;5.928;2022-08-30T04:27:25;4.93;;;4.13;;
66946;SDS011;53853;51.982;5.928;2022-08-30T04:29:55;5.63;;;4.00;;
66946;SDS011;53853;51.982;5.928;2022-08-30T04:32:26;5.10;;;3.88;;
66946;SDS011;53853;51.982;5.928;2022-08-30T04:34:56;7.22;;;5.30;;
66946;SDS011;53853;51.982;5.928;2022-08-30T04:37:26;8.68;;;4.07;;
66946;SDS011;53853;51.982;5.928;2022-08-30T04:39:59;4.57;;;3.55;;
66946;SDS011;53853;51.982;5.928;2022-08-30T04:42:30;6.43;;;4.78;;
66946;SDS011;53853;51.982;5.928;2022-08-30T04:45:02;4.55;;;3.40;;
66946;SDS011;53853;51.982;5.928;2022-08-30T04:47:34;5.68;;;4.10;;
66946;SDS011;53853;51.982;5.928;2022-08-30T04:50:04;4.38;;;3.13;;
66946;SDS011;53853;51.982;5.928;2022-08-30T04:52:35;5.40;;;3.30;;
66946;SDS011;53853;51.982;5.928;2022-08-30T04:55:08;3.60;;;3.10;;
66946;SDS011;53853;51.982;5.928;2022-08-30T04:57:38;5.00;;;3.30;;
66946;SDS011;53853;51.982;5.928;2022-08-30T05:00:09;3.88;;;2.92;;
66946;SDS011;53853;51.982;5.928;2022-08-30T05:02:40;6.78;;;4.28;;
66946;SDS011;53853;51.982;5.928;2022-08-30T05:05:10;5.05;;;2.53;;
66946;SDS011;53853;51.982;5.928;2022-08-30T05:07:59;3.53;;;2.38;;
66946;SDS011;53853;51.982;5.928;2022-08-30T05:10:31;4.32;;;2.90;;
66946;SDS011;53853;51.982;5.928;2022-08-30T05:13:01;4.15;;;3.28;;
66946;SDS011;53853;51.982;5.928;2022-08-30T05:15:31;2.80;;;2.30;;
66946;SDS011;53853;51.982;5.928;2022-08-30T05:18:02;5.97;;;3.08;;
66946;SDS011;53853;51.982;5.928;2022-08-30T05:20:32;4.88;;;2.95;;
66946;SDS011;53853;51.982;5.928;2022-08-30T05:23:03;3.78;;;2.80;;
66946;SDS011;53853;51.982;5.928;2022-08-30T05:25:38;4.75;;;3.08;;
66946;SDS011;53853;51.982;5.928;2022-08-30T05:28:08;3.35;;;3.00;;
66946;SDS011;53853;51.982;5.928;2022-08-30T05:30:39;5.45;;;2.60;;
66946;SDS011;53853;51.982;5.928;2022-08-30T05:33:08;5.53;;;3.35;;
66946;SDS011;53853;51.982;5.928;2022-08-30T05:35:38;4.35;;;3.40;;
66946;SDS011;53853;51.982;5.928;2022-08-30T05:38:08;3.72;;;3.33;;
66946;SDS011;53853;51.982;5.928;2022-08-30T05:40:41;4.95;;;4.10;;
66946;SDS011;53853;51.982;5.928;2022-08-30T05:45:41;5.03;;;3.20;;
66946;SDS011;53853;51.982;5.928;2022-08-30T05:48:11;5.75;;;4.45;;
66946;SDS011;53853;51.982;5.928;2022-08-30T05:50:41;5.40;;;3.53;;
66946;SDS011;53853;51.982;5.928;2022-08-30T05:53:10;4.50;;;3.50;;
66946;SDS011;53853;51.982;5.928;2022-08-30T05:55:43;4.65;;;3.58;;
66946;SDS011;53853;51.982;5.928;2022-08-30T05:58:13;4.78;;;2.80;;
66946;SDS011;53853;51.982;5.928;2022-08-30T06:00:42;4.25;;;2.83;;
66946;SDS011;53853;51.982;5.928;2022-08-30T06:03:12;3.75;;;3.22;;
66946;SDS011;53853;51.982;5.928;2022-08-30T06:05:42;4.45;;;2.60;;
66946;SDS011;53853;51.982;5.928;2022-08-30T06:08:12;3.47;;;2.63;;
66946;SDS011;53853;51.982;5.928;2022-08-30T06:10:45;3.08;;;2.00;;
66946;SDS011;53853;51.982;5.928;2022-08-30T06:13:15;5.03;;;2.80;;
66946;SDS011;53853;51.982;5.928;2022-08-30T06:15:45;4.97;;;1.92;;
66946;SDS011;53853;51.982;5.928;2022-08-30T06:18:15;2.95;;;2.53;;
66946;SDS011;53853;51.982;5.928;2022-08-30T06:20:45;3.35;;;2.47;;
66946;SDS011;53853;51.982;5.928;2022-08-30T06:23:16;5.85;;;2.47;;
66946;SDS011;53853;51.982;5.928;2022-08-30T06:25:48;4.68;;;2.25;;
66946;SDS011;53853;51.982;5.928;2022-08-30T06:28:18;3.55;;;2.30;;
66946;SDS011;53853;51.982;5.928;2022-08-30T06:30:48;5.43;;;1.90;;
66946;SDS011;53853;51.982;5.928;2022-08-30T06:33:18;3.45;;;2.08;;
66946;SDS011;53853;51.982;5.928;2022-08-30T06:35:48;3.85;;;2.70;;
66946;SDS011;53853;51.982;5.928;2022-08-30T06:38:18;3.85;;;2.00;;
66946;SDS011;53853;51.982;5.928;2022-08-30T06:40:50;3.95;;;2.13;;
66946;SDS011;53853;51.982;5.928;2022-08-30T06:43:20;3.80;;;2.10;;
66946;SDS011;53853;51.982;5.928;2022-08-30T06:45:50;5.18;;;2.63;;
66946;SDS011;53853;51.982;5.928;2022-08-30T06:48:20;2.60;;;1.88;;
66946;SDS011;53853;51.982;5.928;2022-08-30T06:50:51;2.95;;;2.13;;
66946;SDS011;53853;51.982;5.928;2022-08-30T06:53:22;6.32;;;2.72;;
66946;SDS011;53853;51.982;5.928;2022-08-30T06:55:57;3.08;;;2.25;;
66946;SDS011;53853;51.982;5.928;2022-08-30T06:58:29;3.55;;;2.50;;
66946;SDS011;53853;51.982;5.928;2022-08-30T07:00:59;4.50;;;2.38;;
66946;SDS011;53853;51.982;5.928;2022-08-30T07:03:29;5.30;;;2.40;;
66946;SDS011;53853;51.982;5.928;2022-08-30T07:05:59;3.08;;;2.03;;
66946;SDS011;53853;51.982;5.928;2022-08-30T07:08:28;3.63;;;1.98;;
66946;SDS011;53853;51.982;5.928;2022-08-30T07:11:01;4.32;;;2.50;;
66946;SDS011;53853;51.982;5.928;2022-08-30T07:13:32;2.60;;;1.92;;
66946;SDS011;53853;51.982;5.928;2022-08-30T07:16:07;4.68;;;2.03;;
66946;SDS011;53853;51.982;5.928;2022-08-30T07:18:38;3.55;;;2.13;;
66946;SDS011;53853;51.982;5.928;2022-08-30T07:21:21;4.60;;;2.47;;
66946;SDS011;53853;51.982;5.928;2022-08-30T07:23:55;3.10;;;1.88;;
66946;SDS011;53853;51.982;5.928;2022-08-30T07:26:29;3.85;;;1.92;;
66946;SDS011;53853;51.982;5.928;2022-08-30T07:29:02;4.57;;;2.10;;
66946;SDS011;53853;51.982;5.928;2022-08-30T07:31:33;4.72;;;2.50;;
66946;SDS011;53853;51.982;5.928;2022-08-30T07:34:03;6.85;;;1.60;;
66946;SDS011;53853;51.982;5.928;2022-08-30T07:36:34;4.07;;;2.25;;
66946;SDS011;53853;51.982;5.928;2022-08-30T07:39:06;2.88;;;1.70;;
66946;SDS011;53853;51.982;5.928;2022-08-30T07:41:38;2.63;;;1.45;;
66946;SDS011;53853;51.982;5.928;2022-08-30T07:44:09;5.97;;;1.90;;
66946;SDS011;53853;51.982;5.928;2022-08-30T07:46:39;6.07;;;1.77;;
66946;SDS011;53853;51.982;5.928;2022-08-30T07:49:09;4.75;;;1.42;;
66946;SDS011;53853;51.982;5.928;2022-08-30T07:51:40;3.97;;;1.80;;
66946;SDS011;53853;51.982;5.928;2022-08-30T07:54:10;2.67;;;1.33;;
66946;SDS011;53853;51.982;5.928;2022-08-30T07:56:42;3.80;;;1.48;;
66946;SDS011;53853;51.982;5.928;2022-08-30T07:59:13;4.93;;;1.47;;
66946;SDS011;53853;51.982;5.928;2022-08-30T08:01:43;2.63;;;1.25;;
66946;SDS011;53853;51.982;5.928;2022-08-30T08:04:13;3.10;;;1.55;;
66946;SDS011;53853;51.982;5.928;2022-08-30T08:06:44;4.47;;;1.80;;
66946;SDS011;53853;51.982;5.928;2022-08-30T08:09:14;2.80;;;1.48;;
66946;SDS011;53853;51.982;5.928;2022-08-30T08:11:47;3.47;;;1.65;;
66946;SDS011;53853;51.982;5.928;2022-08-30T08:14:16;1.92;;;1.10;;
66946;SDS011;53853;51.982;5.928;2022-08-30T08:16:48;4.13;;;1.40;;
66946;SDS011;53853;51.982;5.928;2022-08-30T08:19:17;2.65;;;1.05;;
66946;SDS011;53853;51.982;5.928;2022-08-30T08:21:47;2.63;;;1.00;;
66946;SDS011;53853;51.982;5.928;2022-08-30T08:24:19;2.95;;;1.10;;
66946;SDS011;53853;51.982;5.928;2022-08-30T08:26:51;3.53;;;1.48;;
66946;SDS011;53853;51.982;5.928;2022-08-30T08:29:22;4.20;;;1.30;;
66946;SDS011;53853;51.982;5.928;2022-08-30T08:31:52;4.05;;;1.40;;
66946;SDS011;53853;51.982;5.928;2022-08-30T08:34:24;3.28;;;1.65;;
66946;SDS011;53853;51.982;5.928;2022-08-30T08:36:54;4.82;;;1.33;;
66946;SDS011;53853;51.982;5.928;2022-08-30T08:39:24;4.57;;;1.52;;
66946;SDS011;53853;51.982;5.928;2022-08-30T08:41:59;2.70;;;1.40;;
66946;SDS011;53853;51.982;5.928;2022-08-30T08:44:42;3.67;;;1.38;;
66946;SDS011;53853;51.982;5.928;2022-08-30T08:47:20;2.50;;;1.35;;
66946;SDS011;53853;51.982;5.928;2022-08-30T08:49:57;4.15;;;1.80;;
66946;SDS011;53853;51.982;5.928;2022-08-30T08:52:46;4.22;;;1.40;;
66946;SDS011;53853;51.982;5.928;2022-08-30T08:55:30;3.17;;;1.38;;
66946;SDS011;53853;51.982;5.928;2022-08-30T08:58:02;3.92;;;1.50;;
66946;SDS011;53853;51.982;5.928;2022-08-30T09:00:32;2.17;;;1.02;;
66946;SDS011;53853;51.982;5.928;2022-08-30T09:03:03;5.43;;;1.50;;
66946;SDS011;53853;51.982;5.928;2022-08-30T09:05:34;2.97;;;1.35;;
66946;SDS011;53853;51.982;5.928;2022-08-30T09:08:07;4.40;;;1.25;;
66946;SDS011;53853;51.982;5.928;2022-08-30T09:10:40;2.50;;;1.40;;
66946;SDS011;53853;51.982;5.928;2022-08-30T09:13:18;3.53;;;2.13;;
66946;SDS011;53853;51.982;5.928;2022-08-30T09:15:48;3.28;;;1.60;;
66946;SDS011;53853;51.982;5.928;2022-08-30T09:18:18;4.13;;;1.65;;
66946;SDS011;53853;51.982;5.928;2022-08-30T09:20:48;5.43;;;1.77;;
66946;SDS011;53853;51.982;5.928;2022-08-30T09:23:23;3.33;;;1.17;;
66946;SDS011;53853;51.982;5.928;2022-08-30T09:25:58;2.97;;;1.60;;
66946;SDS011;53853;51.982;5.928;2022-08-30T09:28:33;4.18;;;1.52;;
66946;SDS011;53853;51.982;5.928;2022-08-30T09:31:16;3.47;;;1.98;;
66946;SDS011;53853;51.982;5.928;2022-08-30T09:33:52;2.55;;;1.35;;
66946;SDS011;53853;51.982;5.928;2022-08-30T09:36:24;5.78;;;1.58;;
66946;SDS011;53853;51.982;5.928;2022-08-30T09:38:57;2.53;;;1.40;;
66946;SDS011;53853;51.982;5.928;2022-08-30T09:41:33;3.33;;;2.00;;
66946;SDS011;53853;51.982;5.928;2022-08-30T09:44:10;4.20;;;1.80;;
66946;SDS011;53853;51.982;5.928;2022-08-30T09:46:46;4.63;;;1.85;;
66946;SDS011;53853;51.982;5.928;2022-08-30T09:49:25;5.40;;;1.60;;
66946;SDS011;53853;51.982;5.928;2022-08-30T09:52:00;2.38;;;1.40;;
66946;SDS011;53853;51.982;5.928;2022-08-30T09:54:58;4.50;;;2.13;;
66946;SDS011;53853;51.982;5.928;2022-08-30T09:57:48;3.42;;;1.48;;
66946;SDS011;53853;51.982;5.928;2022-08-30T10:00:28;2.85;;;1.40;;
66946;SDS011;53853;51.982;5.928;2022-08-30T10:03:06;2.50;;;0.82;;
66946;SDS011;53853;51.982;5.928;2022-08-30T10:05:57;3.53;;;1.45;;
66946;SDS011;53853;51.982;5.928;2022-08-30T10:11:26;3.53;;;1.80;;
66946;SDS011;53853;51.982;5.928;2022-08-30T10:14:20;5.10;;;2.30;;
66946;SDS011;53853;51.982;5.928;2022-08-30T10:17:15;2.70;;;1.48;;
66946;SDS011;53853;51.982;5.928;2022-08-30T10:20:00;4.03;;;1.10;;
66946;SDS011;53853;51.982;5.928;2022-08-30T10:22:38;3.65;;;1.30;;
66946;SDS011;53853;51.982;5.928;2022-08-30T10:27:44;3.38;;;1.00;;
66946;SDS011;53853;51.982;5.928;2022-08-30T10:30:19;3.33;;;1.45;;
66946;SDS011;53853;51.982;5.928;2022-08-30T10:32:53;4.45;;;1.88;;
66946;SDS011;53853;51.982;5.928;2022-08-30T10:35:33;5.68;;;1.48;;
66946;SDS011;53853;51.982;5.928;2022-08-30T10:38:09;1.95;;;1.00;;
66946;SDS011;53853;51.982;5.928;2022-08-30T10:40:46;3.25;;;1.40;;
66946;SDS011;53853;51.982;5.928;2022-08-30T10:43:33;2.38;;;1.35;;
66946;SDS011;53853;51.982;5.928;2022-08-30T10:46:10;2.90;;;1.10;;
66946;SDS011;53853;51.982;5.928;2022-08-30T10:48:54;2.60;;;1.27;;
66946;SDS011;53853;51.982;5.928;2022-08-30T10:51:28;3.85;;;1.58;;
66946;SDS011;53853;51.982;5.928;2022-08-30T10:54:07;4.20;;;1.35;;
66946;SDS011;53853;51.982;5.928;2022-08-30T10:56:42;3.05;;;1.17;;
66946;SDS011;53853;51.982;5.928;2022-08-30T10:59:14;2.95;;;1.20;;
66946;SDS011;53853;51.982;5.928;2022-08-30T11:01:57;4.33;;;1.57;;
66946;SDS011;53853;51.982;5.928;2022-08-30T11:04:58;3.88;;;1.25;;
66946;SDS011;53853;51.982;5.928;2022-08-30T11:07:50;5.15;;;1.77;;
66946;SDS011;53853;51.982;5.928;2022-08-30T11:10:31;2.55;;;1.40;;
66946;SDS011;53853;51.982;5.928;2022-08-30T11:13:16;2.85;;;1.30;;
66946;SDS011;53853;51.982;5.928;2022-08-30T11:15:52;4.40;;;1.33;;
66946;SDS011;53853;51.982;5.928;2022-08-30T11:18:25;3.28;;;1.55;;
66946;SDS011;53853;51.982;5.928;2022-08-30T11:24:00;2.28;;;1.17;;
66946;SDS011;53853;51.982;5.928;2022-08-30T11:29:39;3.28;;;1.40;;
66946;SDS011;53853;51.982;5.928;2022-08-30T11:32:23;2.10;;;1.20;;
66946;SDS011;53853;51.982;5.928;2022-08-30T11:35:08;2.90;;;1.40;;
66946;SDS011;53853;51.982;5.928;2022-08-30T11:37:41;3.25;;;1.20;;
66946;SDS011;53853;51.982;5.928;2022-08-30T11:46:33;4.15;;;1.50;;
66946;SDS011;53853;51.982;5.928;2022-08-30T11:52:03;3.17;;;1.58;;
66946;SDS011;53853;51.982;5.928;2022-08-30T11:54:50;5.32;;;1.40;;
66946;SDS011;53853;51.982;5.928;2022-08-30T11:57:30;3.05;;;1.55;;
66946;SDS011;53853;51.982;5.928;2022-08-30T12:00:09;3.83;;;1.55;;
66946;SDS011;53853;51.982;5.928;2022-08-30T12:02:53;4.50;;;1.65;;
66946;SDS011;53853;51.982;5.928;2022-08-30T12:14:11;2.60;;;1.30;;
66946;SDS011;53853;51.982;5.928;2022-08-30T12:17:24;2.75;;;1.65;;
66946;SDS011;53853;51.982;5.928;2022-08-30T12:20:14;3.42;;;1.45;;
66946;SDS011;53853;51.982;5.928;2022-08-30T12:22:51;2.35;;;1.10;;
66946;SDS011;53853;51.982;5.928;2022-08-30T12:25:24;3.17;;;1.25;;
66946;SDS011;53853;51.982;5.928;2022-08-30T12:28:10;2.60;;;1.40;;
66946;SDS011;53853;51.982;5.928;2022-08-30T12:30:44;4.35;;;1.13;;
66946;SDS011;53853;51.982;5.928;2022-08-30T12:33:22;2.83;;;1.42;;
66946;SDS011;53853;51.982;5.928;2022-08-30T12:35:57;3.70;;;1.50;;
66946;SDS011;53853;51.982;5.928;2022-08-30T12:38:27;2.03;;;1.08;;
66946;SDS011;53853;51.982;5.928;2022-08-30T12:40:59;1.67;;;0.95;;
66946;SDS011;53853;51.982;5.928;2022-08-30T12:43:31;4.35;;;1.20;;
66946;SDS011;53853;51.982;5.928;2022-08-30T12:46:06;2.30;;;1.25;;
66946;SDS011;53853;51.982;5.928;2022-08-30T12:48:38;2.92;;;1.60;;
66946;SDS011;53853;51.982;5.928;2022-08-30T12:51:09;1.85;;;0.98;;
66946;SDS011;53853;51.982;5.928;2022-08-30T12:54:04;3.53;;;1.25;;
66946;SDS011;53853;51.982;5.928;2022-08-30T12:56:44;2.40;;;1.10;;
66946;SDS011;53853;51.982;5.928;2022-08-30T13:02:16;3.67;;;1.80;;
66946;SDS011;53853;51.982;5.928;2022-08-30T13:04:49;2.97;;;1.50;;
66946;SDS011;53853;51.982;5.928;2022-08-30T13:07:28;5.82;;;1.50;;
66946;SDS011;53853;51.982;5.928;2022-08-30T13:10:03;4.40;;;1.65;;
66946;SDS011;53853;51.982;5.928;2022-08-30T13:12:35;2.97;;;1.35;;
66946;SDS011;53853;51.982;5.928;2022-08-30T13:15:12;3.70;;;1.10;;
66946;SDS011;53853;51.982;5.928;2022-08-30T13:17:46;2.40;;;1.20;;
66946;SDS011;53853;51.982;5.928;2022-08-30T13:20:39;3.10;;;1.42;;
66946;SDS011;53853;51.982;5.928;2022-08-30T13:23:09;2.85;;;1.23;;
66946;SDS011;53853;51.982;5.928;2022-08-30T13:25:39;2.33;;;1.42;;
66946;SDS011;53853;51.982;5.928;2022-08-30T13:28:09;2.63;;;1.15;;
66946;SDS011;53853;51.982;5.928;2022-08-30T13:30:39;3.13;;;1.45;;
66946;SDS011;53853;51.982;5.928;2022-08-30T13:33:09;2.30;;;1.20;;
66946;SDS011;53853;51.982;5.928;2022-08-30T13:35:43;3.25;;;1.10;;
66946;SDS011;53853;51.982;5.928;2022-08-30T13:38:13;3.85;;;1.55;;
66946;SDS011;53853;51.982;5.928;2022-08-30T13:40:43;3.05;;;1.45;;
66946;SDS011;53853;51.982;5.928;2022-08-30T13:43:14;3.17;;;1.50;;
66946;SDS011;53853;51.982;5.928;2022-08-30T13:45:44;2.92;;;1.50;;
66946;SDS011;53853;51.982;5.928;2022-08-30T13:48:13;3.38;;;1.40;;
66946;SDS011;53853;51.982;5.928;2022-08-30T13:50:46;2.45;;;1.33;;
66946;SDS011;53853;51.982;5.928;2022-08-30T13:53:16;2.28;;;1.20;;
66946;SDS011;53853;51.982;5.928;2022-08-30T13:55:46;2.08;;;0.93;;
66946;SDS011;53853;51.982;5.928;2022-08-30T13:58:16;2.95;;;1.30;;
66946;SDS011;53853;51.982;5.928;2022-08-30T14:00:46;5.10;;;1.60;;
66946;SDS011;53853;51.982;5.928;2022-08-30T14:03:16;2.70;;;1.38;;
66946;SDS011;53853;51.982;5.928;2022-08-30T14:05:49;1.95;;;1.20;;
66946;SDS011;53853;51.982;5.928;2022-08-30T14:08:20;3.30;;;1.45;;
66946;SDS011;53853;51.982;5.928;2022-08-30T14:10:52;4.38;;;1.45;;
66946;SDS011;53853;51.982;5.928;2022-08-30T14:13:23;2.42;;;1.50;;
66946;SDS011;53853;51.982;5.928;2022-08-30T14:15:53;2.55;;;1.40;;
66946;SDS011;53853;51.982;5.928;2022-08-30T14:18:24;2.53;;;1.08;;
66946;SDS011;53853;51.982;5.928;2022-08-30T14:20:57;4.88;;;2.25;;
66946;SDS011;53853;51.982;5.928;2022-08-30T14:23:27;2.42;;;1.33;;
66946;SDS011;53853;51.982;5.928;2022-08-30T14:25:57;2.85;;;1.67;;
66946;SDS011;53853;51.982;5.928;2022-08-30T14:28:29;4.57;;;1.40;;
66946;SDS011;53853;51.982;5.928;2022-08-30T14:30:59;3.22;;;1.30;;
66946;SDS011;53853;51.982;5.928;2022-08-30T14:33:29;2.13;;;1.10;;
66946;SDS011;53853;51.982;5.928;2022-08-30T14:36:02;4.90;;;1.98;;
66946;SDS011;53853;51.982;5.928;2022-08-30T14:38:32;3.72;;;1.40;;
66946;SDS011;53853;51.982;5.928;2022-08-30T14:41:02;3.47;;;1.35;;
66946;SDS011;53853;51.982;5.928;2022-08-30T14:43:32;3.22;;;1.27;;
66946;SDS011;53853;51.982;5.928;2022-08-30T14:46:02;3.72;;;1.45;;
66946;SDS011;53853;51.982;5.928;2022-08-30T14:48:32;2.17;;;1.08;;
66946;SDS011;53853;51.982;5.928;2022-08-30T14:51:09;5.63;;;1.17;;
66946;SDS011;53853;51.982;5.928;2022-08-30T14:53:40;3.58;;;1.10;;
66946;SDS011;53853;51.982;5.928;2022-08-30T14:56:11;3.95;;;1.50;;
66946;SDS011;53853;51.982;5.928;2022-08-30T14:58:44;8.88;;;2.42;;
66946;SDS011;53853;51.982;5.928;2022-08-30T15:01:15;4.00;;;1.30;;
66946;SDS011;53853;51.982;5.928;2022-08-30T15:03:47;5.57;;;1.52;;
66946;SDS011;53853;51.982;5.928;2022-08-30T15:06:19;2.83;;;1.23;;
66946;SDS011;53853;51.982;5.928;2022-08-30T15:08:49;8.17;;;1.53;;
66946;SDS011;53853;51.982;5.928;2022-08-30T15:11:20;4.25;;;1.25;;
66946;SDS011;53853;51.982;5.928;2022-08-30T15:13:51;3.33;;;1.23;;
66946;SDS011;53853;51.982;5.928;2022-08-30T15:16:23;4.55;;;1.95;;
66946;SDS011;53853;51.982;5.928;2022-08-30T15:18:54;2.85;;;1.42;;
66946;SDS011;53853;51.982;5.928;2022-08-30T15:21:28;2.83;;;1.45;;
66946;SDS011;53853;51.982;5.928;2022-08-30T15:23:59;5.55;;;1.33;;
66946;SDS011;53853;51.982;5.928;2022-08-30T15:26:30;3.05;;;1.20;;
66946;SDS011;53853;51.982;5.928;2022-08-30T15:29:01;2.30;;;1.00;;
66946;SDS011;53853;51.982;5.928;2022-08-30T15:31:30;2.17;;;1.02;;
66946;SDS011;53853;51.982;5.928;2022-08-30T15:34:00;5.80;;;1.40;;
66946;SDS011;53853;51.982;5.928;2022-08-30T15:36:33;2.60;;;1.60;;
66946;SDS011;53853;51.982;5.928;2022-08-30T15:39:03;3.22;;;1.65;;
66946;SDS011;53853;51.982;5.928;2022-08-30T15:41:34;3.72;;;1.33;;
66946;SDS011;53853;51.982;5.928;2022-08-30T15:44:05;3.08;;;1.40;;
66946;SDS011;53853;51.982;5.928;2022-08-30T15:46:36;3.83;;;1.27;;
66946;SDS011;53853;51.982;5.928;2022-08-30T15:49:08;3.33;;;1.20;;
66946;SDS011;53853;51.982;5.928;2022-08-30T15:51:43;2.30;;;1.05;;
66946;SDS011;53853;51.982;5.928;2022-08-30T15:54:15;2.50;;;1.00;;
66946;SDS011;53853;51.982;5.928;2022-08-30T15:56:48;2.67;;;1.02;;